Time;durP1;ratioP1;P1;durP2;ratioP2;P2;SDS_P1;SDS_P2;PMS_P1;PMS_P2;Temp;Humidity;BMP_temperature;BMP_pressure;BME280_temperature;BME280_humidity;BME280_pressure;Samples;Min_cycle;Max_cycle;Signal;HPM_P1;HPM_P2
2022/03/23 00:01:45;;;;;;;40.88;21.40;;;230.40;1459.20;;;;;;5078334;28;19911;-75
2022/03/23 00:04:10;;;;;;;;;;;230.40;1459.20;;;;;;5054933;28;20035;-76
2022/03/23 00:06:37;;;;;;;43.22;23.55;;;205.70;1484.80;;;;;;5054618;28;19905;-77
2022/03/23 00:09:04;;;;;;;39.70;21.05;;;205.70;1484.80;;;;;;5052970;28;20048;-75
2022/03/23 00:11:30;;;;;;;48.55;23.05;;;205.70;1484.80;;;;;;5053391;28;20075;-74
2022/03/23 00:13:56;;;;;;;;;;;205.60;1510.40;;;;;;5050661;28;20025;-77
2022/03/23 00:16:22;;;;;;;42.33;22.27;;;205.60;1510.40;;;;;;5054133;28;19904;-74
2022/03/23 00:18:47;;;;;;;;;;;205.60;1536.00;;;;;;5053338;28;20021;-75
2022/03/23 00:21:14;;;;;;;42.05;21.58;;;205.20;1561.60;;;;;;5054022;28;19904;-75
2022/03/23 00:23:39;;;;;;;42.35;21.08;;;205.00;1587.20;;;;;;5046455;28;20091;-75
2022/03/23 00:26:05;;;;;;;;;;;180.10;1612.80;;;;;;5045872;28;20489;-74
2022/03/23 00:28:31;;;;;;;43.33;20.35;;;180.10;1612.80;;;;;;5053829;28;19963;-74
2022/03/23 00:30:56;;;;;;;;;;;179.80;1612.80;;;;;;5052921;28;20029;-76
2022/03/23 00:33:22;;;;;;;35.88;18.17;;;179.90;1587.20;;;;;;5052819;28;19931;-75
2022/03/23 00:35:48;;;;;;;;;;;179.70;1587.20;;;;;;5054224;28;20017;-74
2022/03/23 00:38:18;;;;;;;32.35;14.45;;;179.60;1587.20;;;;;;5052240;28;20012;-75
2022/03/23 00:40:44;;;;;;;35.72;16.30;;;179.30;1587.20;;;;;;5052303;28;20029;-75
2022/03/23 00:43:11;;;;;;;31.38;14.25;;;154.30;1587.20;;;;;;5051949;28;20489;-75
2022/03/23 00:45:38;;;;;;;29.80;14.35;;;154.30;1587.20;;;;;;5052001;28;20122;-75
2022/03/23 00:48:05;;;;;;;35.45;15.32;;;154.00;1612.80;;;;;;5052010;28;20485;-75
2022/03/23 00:50:30;;;;;;;24.55;13.77;;;153.80;1638.40;;;;;;5053595;28;20084;-74
2022/03/23 00:52:56;;;;;;;39.65;15.02;;;154.00;1638.40;;;;;;5052451;28;20178;-75
2022/03/23 00:55:22;;;;;;;;;;;154.10;1638.40;;;;;;5053675;28;20029;-75
2022/03/23 00:57:48;;;;;;;31.98;13.35;;;154.30;1638.40;;;;;;5053386;28;19935;-74
2022/03/23 01:00:17;;;;;;;;;;;154.40;1638.40;;;;;;5053740;28;20087;-74
2022/03/23 01:02:44;;;;;;;27.30;15.20;;;154.30;1664.00;;;;;;5050512;28;19912;-74
2022/03/23 01:05:11;;;;;;;25.27;14.38;;;154.30;1664.00;;;;;;5053370;28;20021;-75
2022/03/23 01:07:38;;;;;;;35.47;15.57;;;154.50;1664.00;;;;;;5053272;28;20025;-75
2022/03/23 01:10:06;;;;;;;28.25;14.93;;;179.30;1664.00;;;;;;5050542;28;20016;-76
2022/03/23 01:12:32;;;;;;;30.92;14.70;;;179.40;1638.40;;;;;;5053178;28;20157;-74
2022/03/23 01:14:58;;;;;;;29.30;13.82;;;179.40;1638.40;;;;;;5051817;28;20021;-76
2022/03/23 01:17:24;;;;;;;30.25;14.45;;;179.40;1664.00;;;;;;5051659;28;20021;-75
2022/03/23 01:19:51;;;;;;;31.73;16.20;;;179.20;1664.00;;;;;;5052086;28;20025;-75
2022/03/23 01:22:17;;;;;;;27.73;14.98;;;179.40;1638.40;;;;;;5051823;28;20044;-75
2022/03/23 01:24:43;;;;;;;;;;;179.50;1612.80;;;;;;5053375;28;20050;-76
2022/03/23 01:27:09;;;;;;;30.95;13.95;;;179.80;1612.80;;;;;;5052719;28;19928;-74
2022/03/23 01:29:36;;;;;;;32.47;14.00;;;179.50;1612.80;;;;;;5051983;28;20058;-74
2022/03/23 01:32:02;;;;;;;32.42;13.55;;;179.80;1612.80;;;;;;5051554;28;20454;-74
2022/03/23 01:34:28;;;;;;;28.60;14.63;;;179.60;1612.80;;;;;;5051615;28;20029;-75
2022/03/23 01:36:53;;;;;;;;;;;179.50;1638.40;;;;;;5052094;28;20017;-75
2022/03/23 01:39:19;;;;;;;32.92;15.82;;;179.40;1638.40;;;;;;5052847;28;19912;-75
2022/03/23 01:41:45;;;;;;;;;;;179.40;1638.40;;;;;;5053201;28;20045;-74
2022/03/23 01:44:21;;;;;;;33.40;14.18;;;154.50;1664.00;;;;;;5051452;28;19915;-76
2022/03/23 01:47:11;;;;;;;28.38;14.40;;;154.30;1689.60;;;;;;5049983;28;20013;-74
2022/03/23 01:49:51;;;;;;;25.25;13.95;;;154.00;1689.60;;;;;;5051530;28;20052;-75
2022/03/23 01:52:19;;;;;;;29.80;14.20;;;154.00;1689.60;;;;;;5050278;28;20017;-75
2022/03/23 01:54:45;;;;;;;30.77;13.18;;;153.70;1689.60;;;;;;5052859;28;20021;-74
2022/03/23 01:57:13;;;;;;;31.58;13.88;;;153.60;1689.60;;;;;;5055463;28;20044;-75
2022/03/23 01:59:39;;;;;;;24.08;12.35;;;128.90;1689.60;;;;;;5055407;28;20032;-74
2022/03/23 02:02:05;;;;;;;;;;;153.60;1664.00;;;;;;5057062;28;20110;-74
2022/03/23 02:04:31;;;;;;;29.85;13.07;;;128.90;1664.00;;;;;;5056760;28;19927;-76
2022/03/23 02:06:56;;;;;;;26.23;14.15;;;128.90;1664.00;;;;;;5055416;28;20373;-74
2022/03/23 02:09:23;;;;;;;;;;;153.60;1689.60;;;;;;5056996;28;20075;-74
2022/03/23 02:11:49;;;;;;;27.55;13.63;;;153.80;1664.00;;;;;;5055343;28;19904;-76
2022/03/23 02:14:15;;;;;;;;;;;153.90;1664.00;;;;;;5055716;28;20028;-77
2022/03/23 02:16:46;;;;;;;28.60;14.20;;;154.00;1664.00;;;;;;5055171;28;20331;-74
2022/03/23 02:19:12;;;;;;;35.15;14.32;;;154.00;1664.00;;;;;;5052940;28;20021;-75
2022/03/23 02:21:45;;;;;;;38.80;14.25;;;153.80;1689.60;;;;;;5055131;28;20079;-75
2022/03/23 02:24:12;;;;;;;35.85;13.93;;;153.80;1689.60;;;;;;5054458;28;20024;-75
2022/03/23 02:26:38;;;;;;;39.53;14.32;;;153.70;1689.60;;;;;;5055965;28;20048;-74
2022/03/23 02:29:04;;;;;;;40.08;14.90;;;128.90;1715.20;;;;;;5056101;28;20049;-75
2022/03/23 02:31:30;;;;;;;40.85;15.07;;;128.80;1715.20;;;;;;5053848;28;20051;-75
2022/03/23 02:33:56;;;;;;;37.05;16.23;;;128.70;1715.20;;;;;;5056071;28;20021;-75
2022/03/23 02:36:22;;;;;;;;;;;128.80;1715.20;;;;;;5056576;28;20023;-75
2022/03/23 02:38:48;;;;;;;33.97;14.48;;;128.80;1715.20;;;;;;5054781;28;19905;-74
2022/03/23 02:41:13;;;;;;;;;;;128.90;1715.20;;;;;;5055050;28;20013;-75
2022/03/23 02:43:39;;;;;;;27.92;12.20;;;128.80;1715.20;;;;;;5054810;28;19904;-74
2022/03/23 02:46:05;;;;;;;;;;;128.70;1740.80;;;;;;5055913;28;20025;-74
2022/03/23 02:48:32;;;;;;;50.70;11.50;;;128.60;1766.40;;;;;;5046608;28;19916;-75
2022/03/23 02:50:58;;;;;;;33.38;12.07;;;128.70;1792.00;;;;;;5054517;28;20104;-76
2022/03/23 03:02:35;;;;;;;44.75;11.13;;;153.80;1792.00;;;;;;5054168;28;20031;-75
2022/03/23 03:05:03;;;;;;;38.95;11.60;;;154.10;1792.00;;;;;;4997251;28;20034;-75
2022/03/23 03:08:44;;;;;;;33.05;11.23;;;154.10;1792.00;;;;;;4995995;28;20061;-74
2022/03/23 03:10:14;;;;;;;26.45;10.32;;;154.20;1817.60;;;;;;5013590;28;20026;-75
2022/03/23 03:12:42;;;;;;;35.97;11.45;;;154.40;1766.40;;;;;;5013692;28;20525;-74
2022/03/23 03:15:10;;;;;;;46.80;11.32;;;154.40;1740.80;;;;;;4996966;28;20022;-76
2022/03/23 03:17:36;;;;;;;35.25;11.18;;;154.40;1715.20;;;;;;5013528;28;20018;-75
2022/03/23 03:20:04;;;;;;;;;;;154.50;1715.20;;;;;;4997375;28;20441;-74
2022/03/23 03:22:34;;;;;;;;;;;154.40;1715.20;;;;;;5013951;28;19988;-76
2022/03/23 03:24:59;;;;;;;25.23;10.18;;;154.20;1740.80;;;;;;4996820;28;20287;-76
2022/03/23 03:27:25;;;;;;;39.25;10.38;;;154.10;1740.80;;;;;;5013408;28;20038;-75
2022/03/23 03:29:51;;;;;;;;;;;154.10;1740.80;;;;;;5013727;28;20037;-75
2022/03/23 03:32:17;;;;;;;40.55;11.05;;;154.50;1740.80;;;;;;4996926;28;20359;-74
2022/03/23 03:34:42;;;;;;;;;;;154.10;1740.80;;;;;;4996675;28;20030;-75
2022/03/23 03:37:08;;;;;;;22.38;8.52;;;154.20;1740.80;;;;;;4996871;28;19913;-74
2022/03/23 03:39:33;;;;;;;;;;;154.10;1766.40;;;;;;5013721;28;20077;-75
2022/03/23 03:41:59;;;;;;;25.08;8.32;;;154.00;1766.40;;;;;;5040259;28;20380;-74
2022/03/23 03:44:25;;;;;;;;;;;153.80;1792.00;;;;;;5054281;28;20029;-74
2022/03/23 03:46:51;;;;;;;30.27;7.78;;;153.80;1868.80;;;;;;5053398;28;19909;-76
2022/03/23 03:49:18;;;;;;;34.63;7.57;;;154.00;1843.20;;;;;;5053355;28;20052;-74
2022/03/23 03:51:44;;;;;;;44.25;7.68;;;128.90;1817.60;;;;;;5054731;28;20013;-74
2022/03/23 03:54:11;;;;;;;;;;;128.40;1894.40;;;;;;5055018;28;20036;-76
2022/03/23 03:56:36;;;;;;;32.60;7.93;;;128.20;1920.00;;;;;;5053277;28;20250;-75
2022/03/23 03:59:02;;;;;;;;;;;128.30;1945.60;;;;;;5055032;28;20044;-76
2022/03/23 04:01:28;;;;;;;32.40;8.07;;;128.40;1971.20;;;;;;5053179;28;19958;-74
2022/03/23 04:03:54;;;;;;;;;;;128.50;1971.20;;;;;;5054758;28;20027;-74
2022/03/23 04:06:20;;;;;;;30.80;6.60;;;128.50;1996.80;;;;;;5053248;28;19904;-75
2022/03/23 04:08:46;;;;;;;29.02;6.25;;;128.50;1996.80;;;;;;5054403;28;20025;-74
2022/03/23 04:11:12;;;;;;;23.88;6.50;;;128.70;2022.40;;;;;;5053116;28;20048;-76
2022/03/23 04:13:37;;;;;;;;;;;128.90;2022.40;;;;;;5053528;28;20064;-75
2022/03/23 04:16:03;;;;;;;19.88;6.20;;;153.70;1996.80;;;;;;5054201;28;20353;-74
2022/03/23 04:18:29;;;;;;;22.85;5.78;;;153.80;1996.80;;;;;;5054058;28;20462;-76
2022/03/23 04:20:55;;;;;;;;;;;153.60;1971.20;;;;;;5054581;28;20040;-75
2022/03/23 04:23:21;;;;;;;16.65;5.55;;;153.70;1996.80;;;;;;5054200;28;19908;-76
2022/03/23 04:25:47;;;;;;;;;;;153.80;1996.80;;;;;;5052789;28;20127;-74
2022/03/23 04:28:12;;;;;;;25.50;5.50;;;154.00;1971.20;;;;;;5052575;28;19920;-74
2022/03/23 04:30:39;;;;;;;26.35;6.40;;;128.90;1920.00;;;;;;5053867;28;20100;-75
2022/03/23 04:33:05;;;;;;;30.33;5.60;;;128.80;1945.60;;;;;;5052577;28;20037;-75
2022/03/23 04:35:30;;;;;;;24.27;6.35;;;128.70;1996.80;;;;;;5053809;28;20305;-75
2022/03/23 04:37:56;;;;;;;;;;;128.90;1996.80;;;;;;5054219;28;20108;-76
2022/03/23 04:40:22;;;;;;;32.03;7.28;;;128.90;1996.80;;;;;;5052265;28;20357;-74
2022/03/23 04:42:48;;;;;;;;;;;128.90;2022.40;;;;;;5054258;28;20024;-73
2022/03/23 04:45:14;;;;;;;26.50;6.18;;;153.60;2022.40;;;;;;5053620;28;19908;-74
2022/03/23 04:47:40;;;;;;;29.38;6.55;;;153.60;2048.00;;;;;;5052706;28;20040;-75
2022/03/23 04:50:07;;;;;;;;;;;153.60;2048.00;;;;;;5054443;28;20078;-74
2022/03/23 04:52:33;;;;;;;15.68;4.38;;;153.70;2048.00;;;;;;5053976;28;19911;-74
2022/03/23 04:54:59;;;;;;;20.48;6.53;;;153.80;2022.40;;;;;;5053834;28;20108;-75
2022/03/23 04:57:26;;;;;;;60.85;8.07;;;153.80;2022.40;;;;;;5052732;28;20087;-75
2022/03/23 04:59:52;;;;;;;20.13;5.85;;;153.80;2022.40;;;;;;5052744;28;20504;-75
2022/03/23 05:02:18;;;;;;;16.73;6.18;;;153.90;2022.40;;;;;;5053746;28;20025;-75
2022/03/23 05:04:45;;;;;;;46.72;7.20;;;153.90;2022.40;;;;;;5053798;28;20029;-75
2022/03/23 05:07:12;;;;;;;63.22;9.38;;;154.10;2022.40;;;;;;5052330;28;20045;-74
2022/03/23 05:09:38;;;;;;;21.88;6.25;;;154.40;1996.80;;;;;;5053765;28;20354;-74
2022/03/23 05:12:04;;;;;;;23.75;7.93;;;154.40;1971.20;;;;;;5052580;28;20032;-75
2022/03/23 05:14:30;;;;;;;22.98;5.85;;;154.40;1971.20;;;;;;5052493;28;20032;-75
2022/03/23 05:16:55;;;;;;;18.88;6.30;;;154.30;1971.20;;;;;;5052396;28;20040;-74
2022/03/23 05:19:21;;;;;;;;;;;154.30;1971.20;;;;;;5052675;28;20078;-74
2022/03/23 05:21:47;;;;;;;36.22;6.00;;;154.20;1996.80;;;;;;5053568;28;19912;-77
2022/03/23 05:24:13;;;;;;;19.50;6.07;;;154.30;1996.80;;;;;;5052261;28;20025;-75
2022/03/23 05:26:39;;;;;;;28.38;6.00;;;154.40;1971.20;;;;;;5053141;28;20051;-74
2022/03/23 05:29:04;;;;;;;;;;;154.50;1971.20;;;;;;5052431;28;20083;-76
2022/03/23 05:31:30;;;;;;;29.70;5.72;;;154.50;1996.80;;;;;;5053072;28;19905;-75
2022/03/23 05:33:56;;;;;;;;;;;154.40;1996.80;;;;;;5052330;28;20044;-75
2022/03/23 05:36:21;;;;;;;15.02;5.15;;;154.50;1996.80;;;;;;5053343;28;19904;-76
2022/03/23 05:38:47;;;;;;;;;;;179.20;1996.80;;;;;;5053793;28;20017;-75
2022/03/23 05:41:13;;;;;;;24.20;5.38;;;179.40;1971.20;;;;;;5052006;28;20299;-74
2022/03/23 05:43:38;;;;;;;;;;;179.40;1945.60;;;;;;5052495;28;20029;-75
2022/03/23 05:46:04;;;;;;;29.77;5.93;;;179.50;1945.60;;;;;;5053218;28;19911;-75
2022/03/23 05:48:30;;;;;;;;;;;179.70;1945.60;;;;;;5053567;28;20040;-74
2022/03/23 05:50:56;;;;;;;19.95;4.93;;;179.40;1971.20;;;;;;5053169;28;20356;-74
2022/03/23 05:53:21;;;;;;;;;;;179.40;1971.20;;;;;;5052274;28;20086;-74
2022/03/23 05:55:47;;;;;;;26.00;5.43;;;179.80;1920.00;;;;;;5053041;28;19934;-74
2022/03/23 05:58:12;;;;;;;;;;;180.00;1894.40;;;;;;5053621;28;20488;-76
2022/03/23 06:00:38;;;;;;;18.80;5.50;;;204.80;1894.40;;;;;;5053067;28;19911;-74
2022/03/23 06:03:04;;;;;;;;;;;205.00;1894.40;;;;;;5053480;28;20036;-75
2022/03/23 06:05:30;;;;;;;15.18;4.93;;;205.10;1868.80;;;;;;5052125;28;20312;-75
2022/03/23 06:07:56;;;;;;;;;;;205.10;1894.40;;;;;;5051834;28;20033;-74
2022/03/23 06:10:22;;;;;;;15.98;5.47;;;205.10;1894.40;;;;;;5051696;28;19918;-74
2022/03/23 06:12:47;;;;;;;;;;;205.30;1894.40;;;;;;5052169;28;20474;-75
2022/03/23 06:15:13;;;;;;;11.13;4.53;;;205.50;1894.40;;;;;;5051878;28;19911;-75
2022/03/23 06:17:39;;;;;;;;;;;205.70;1894.40;;;;;;5053317;28;20473;-75
2022/03/23 06:20:07;;;;;;;15.18;5.00;;;230.40;1894.40;;;;;;5052771;28;19912;-75
2022/03/23 06:22:32;;;;;;;26.05;5.72;;;230.50;1843.20;;;;;;5051602;28;20025;-76
2022/03/23 06:24:58;;;;;;;;;;;230.70;1843.20;;;;;;5051834;28;20587;-75
2022/03/23 06:27:25;;;;;;;25.90;7.93;;;230.90;1817.60;;;;;;5052534;28;19928;-73
2022/03/23 06:29:51;;;;;;;26.95;7.97;;;230.90;1766.40;;;;;;5052318;28;20103;-75
2022/03/23 06:32:17;;;;;;;;;;;231.00;1766.40;;;;;;5053057;28;20410;-74
2022/03/23 06:34:43;;;;;;;18.65;5.50;;;231.00;1740.80;;;;;;5051829;28;19937;-75
2022/03/23 06:37:09;;;;;;;21.77;6.38;;;231.10;1740.80;;;;;;5051592;28;20091;-78
2022/03/23 06:39:35;;;;;;;;;;;231.20;1740.80;;;;;;5052057;28;20041;-76
2022/03/23 06:42:01;;;;;;;25.67;6.47;;;231.20;1715.20;;;;;;5055136;28;20277;-77
2022/03/23 06:44:26;;;;;;;;;;;231.30;1715.20;;;;;;5056805;28;20108;-76
2022/03/23 06:46:52;;;;;;;19.75;7.13;;;256.00;1715.20;;;;;;5056563;28;20249;-77
2022/03/23 06:49:18;;;;;;;;;;;256.20;1689.60;;;;;;5055330;28;20037;-77
2022/03/23 06:51:44;;;;;;;29.23;7.00;;;256.30;1689.60;;;;;;5056479;28;19913;-80
2022/03/23 06:54:10;;;;;;;16.88;7.18;;;256.50;1689.60;;;;;;5055191;28;20057;-77
2022/03/23 06:56:35;;;;;;;;;;;256.70;1689.60;;;;;;5056501;28;20095;-76
2022/03/23 06:59:03;;;;;;;26.17;6.22;;;256.90;1664.00;;;;;;5056213;28;19966;-76
2022/03/23 07:01:29;;;;;;;21.23;5.68;;;281.70;1664.00;;;;;;5056161;28;20025;-75
2022/03/23 07:03:55;;;;;;;23.08;6.07;;;281.90;1638.40;;;;;;5056131;28;20028;-79
2022/03/23 07:06:21;;;;;;;;;;;282.00;1612.80;;;;;;5055087;28;20051;-77
2022/03/23 07:11:31;;;;;;;14.55;5.65;;;282.30;1612.80;;;;;;5055978;28;20020;-77
2022/03/23 07:13:57;;;;;;;22.98;4.82;;;282.50;1612.80;;;;;;5055909;28;20021;-76
2022/03/23 07:16:23;;;;;;;17.58;5.45;;;307.30;1612.80;;;;;;5054709;28;20217;-79
2022/03/23 07:18:49;;;;;;;14.07;5.30;;;307.50;1561.60;;;;;;5054687;28;20093;-79
2022/03/23 07:21:15;;;;;;;23.67;7.45;;;307.50;1561.60;;;;;;5055727;28;20071;-76
2022/03/23 07:23:41;;;;;;;27.52;7.72;;;307.50;1561.60;;;;;;5054519;28;20488;-76
2022/03/23 07:26:08;;;;;;;31.05;6.00;;;307.70;1561.60;;;;;;5055506;28;20075;-76
2022/03/23 07:28:34;;;;;;;15.77;5.75;;;307.70;1536.00;;;;;;5054431;28;20044;-76
2022/03/23 07:31:00;;;;;;;26.63;5.82;;;307.80;1536.00;;;;;;5054402;28;20385;-75
2022/03/23 07:33:26;;;;;;;24.45;6.38;;;308.00;1536.00;;;;;;5054434;28;20029;-78
2022/03/23 07:35:52;;;;;;;;;;;308.10;1536.00;;;;;;5054727;28;20037;-76
2022/03/23 07:38:18;;;;;;;22.13;6.18;;;332.80;1536.00;;;;;;5054178;28;19912;-76
2022/03/23 07:40:44;;;;;;;21.40;5.25;;;332.80;1536.00;;;;;;5054327;28;20025;-76
2022/03/23 07:43:10;;;;;;;24.13;6.50;;;332.90;1536.00;;;;;;5055444;28;20047;-76
2022/03/23 07:45:36;;;;;;;27.20;6.38;;;333.00;1510.40;;;;;;5055324;28;20036;-76
2022/03/23 07:48:02;;;;;;;16.35;6.25;;;333.10;1510.40;;;;;;5055192;28;20033;-76
2022/03/23 07:50:27;;;;;;;27.02;6.18;;;333.20;1536.00;;;;;;5053910;28;20051;-75
2022/03/23 07:52:54;;;;;;;;;;;333.30;1484.80;;;;;;5055285;28;20032;-77
2022/03/23 07:55:20;;;;;;;25.17;6.55;;;333.30;1459.20;;;;;;5054921;28;20349;-77
2022/03/23 07:57:46;;;;;;;;;;;333.30;1484.80;;;;;;5055632;28;20043;-77
2022/03/23 08:00:12;;;;;;;24.92;8.52;;;333.40;1484.80;;;;;;5053958;28;19908;-77
2022/03/23 08:02:39;;;;;;;43.25;23.42;;;333.50;1484.80;;;;;;5053807;28;20024;-77
2022/03/23 08:05:06;;;;;;;34.85;11.05;;;333.60;1433.60;;;;;;5053587;28;20473;-77
2022/03/23 08:07:31;;;;;;;28.70;7.55;;;333.70;1459.20;;;;;;5053770;28;20117;-78
2022/03/23 08:09:57;;;;;;;25.67;7.00;;;333.70;1408.00;;;;;;5053880;28;20504;-78
2022/03/23 08:12:23;;;;;;;30.23;6.57;;;333.70;1408.00;;;;;;5053728;28;20021;-80
2022/03/23 08:14:48;;;;;;;18.95;6.95;;;333.70;1433.60;;;;;;5053882;28;20025;-80
2022/03/23 08:17:14;;;;;;;;;;;358.50;1433.60;;;;;;5054663;28;20083;-79
2022/03/23 08:19:40;;;;;;;20.90;6.75;;;358.40;1408.00;;;;;;5053431;28;19940;-78
2022/03/23 08:22:06;;;;;;;23.48;7.13;;;358.40;1433.60;;;;;;5053544;28;20037;-79
2022/03/23 08:24:32;;;;;;;22.25;7.07;;;358.50;1433.60;;;;;;5053669;28;20465;-79
2022/03/23 08:26:59;;;;;;;18.70;7.20;;;358.50;1408.00;;;;;;5054465;28;20072;-78
2022/03/23 08:29:25;;;;;;;20.20;6.65;;;358.50;1382.40;;;;;;5053524;28;20031;-79
2022/03/23 08:31:52;;;;;;;17.90;6.72;;;358.60;1408.00;;;;;;5053469;28;20021;-78
2022/03/23 08:34:18;;;;;;;21.98;6.30;;;358.60;1382.40;;;;;;5053453;28;20055;-80
2022/03/23 08:36:44;;;;;;;41.33;11.38;;;358.60;1382.40;;;;;;5053646;28;20362;-79
2022/03/23 08:39:10;;;;;;;22.02;6.80;;;358.70;1382.40;;;;;;5053322;28;20021;-77
2022/03/23 08:41:35;;;;;;;31.23;6.78;;;358.70;1356.80;;;;;;5053477;28;20166;-75
2022/03/23 08:44:01;;;;;;;;;;;358.70;1356.80;;;;;;5054625;28;20025;-75
2022/03/23 08:46:27;;;;;;;20.90;5.93;;;358.80;1356.80;;;;;;5054069;28;20434;-78
2022/03/23 08:48:53;;;;;;;21.90;6.70;;;359.00;1356.80;;;;;;5052789;28;20043;-75
2022/03/23 08:51:19;;;;;;;29.15;6.50;;;358.80;1356.80;;;;;;5053889;28;20025;-75
2022/03/23 08:53:45;;;;;;;16.73;6.53;;;358.90;1382.40;;;;;;5053001;28;20465;-76
2022/03/23 08:56:11;;;;;;;24.75;7.70;;;359.00;1356.80;;;;;;5053664;28;20051;-74
2022/03/23 08:58:38;;;;;;;18.02;7.00;;;358.90;1305.60;;;;;;5053879;28;20017;-75
2022/03/23 09:01:05;;;;;;;20.90;7.78;;;359.00;1305.60;;;;;;5053873;28;20032;-75
2022/03/23 09:03:31;;;;;;;41.22;8.55;;;359.00;1305.60;;;;;;5052532;28;20423;-75
2022/03/23 09:05:58;;;;;;;21.52;7.25;;;359.10;1305.60;;;;;;5052744;28;20036;-74
2022/03/23 09:08:24;;;;;;;27.08;8.10;;;359.20;1331.20;;;;;;5053609;28;20381;-74
2022/03/23 09:10:50;;;;;;;26.90;8.27;;;359.30;1331.20;;;;;;5053755;28;20021;-74
2022/03/23 09:13:16;;;;;;;19.73;7.63;;;359.30;1305.60;;;;;;5053652;28;20025;-75
2022/03/23 09:15:43;;;;;;;22.92;7.45;;;384.00;1280.00;;;;;;5052354;28;20025;-75
2022/03/23 09:18:08;;;;;;;25.83;7.65;;;384.10;1280.00;;;;;;5053682;28;20091;-75
2022/03/23 09:20:34;;;;;;;26.38;7.43;;;384.20;1254.40;;;;;;5053451;28;20457;-76
2022/03/23 09:23:00;;;;;;;22.45;7.20;;;384.30;1254.40;;;;;;5052503;28;20029;-75
2022/03/23 09:25:27;;;;;;;27.50;8.75;;;384.40;1254.40;;;;;;5053223;28;20094;-76
2022/03/23 09:27:53;;;;;;;22.65;7.97;;;384.40;1228.80;;;;;;5052016;28;20052;-81
2022/03/23 09:30:20;;;;;;;29.55;8.20;;;384.50;1228.80;;;;;;5052309;28;20031;-78
2022/03/23 09:32:47;;;;;;;23.92;8.13;;;384.60;1254.40;;;;;;5052037;28;20484;-75
2022/03/23 09:35:14;;;;;;;26.55;7.97;;;384.70;1228.80;;;;;;5052154;28;20068;-75
2022/03/23 09:37:50;;;;;;;19.10;7.57;;;384.90;1228.80;;;;;;5051983;28;20027;-76
2022/03/23 09:40:17;;;;;;;24.75;8.43;;;384.90;1177.60;;;;;;5051956;28;20452;-75
2022/03/23 09:42:46;;;;;;;25.40;8.35;;;409.70;1228.80;;;;;;5051999;28;20116;-77
2022/03/23 09:45:20;;;;;;;27.50;7.70;;;409.80;1254.40;;;;;;5053124;28;20029;-75
2022/03/23 09:47:46;;;;;;;17.63;8.35;;;410.00;1254.40;;;;;;5052001;28;20503;-75
2022/03/23 09:50:13;;;;;;;20.45;8.27;;;410.00;1228.80;;;;;;5051549;28;20029;-75
2022/03/23 09:52:39;;;;;;;36.80;8.60;;;410.00;1203.20;;;;;;5052996;28;20021;-75
2022/03/23 09:55:05;;;;;;;26.40;8.73;;;410.20;1177.60;;;;;;5051841;28;20112;-77
2022/03/23 09:57:31;;;;;;;23.35;8.27;;;410.40;1177.60;;;;;;5053146;28;20060;-76
2022/03/23 09:59:56;;;;;;;29.73;7.97;;;410.50;1177.60;;;;;;5051819;28;20079;-76
2022/03/23 10:02:51;;;;;;;18.98;6.95;;;435.20;1152.00;;;;;;5051550;28;20029;-77
2022/03/23 10:05:25;;;;;;;38.83;8.52;;;435.40;1126.40;;;;;;5053015;28;20059;-74
2022/03/23 10:08:17;;;;;;;23.33;5.00;;;435.60;1152.00;;;;;;5051715;28;20499;-78
2022/03/23 10:11:19;;;;;;;21.73;6.97;;;435.70;1126.40;;;;;;5031021;28;20037;-74
2022/03/23 10:14:06;;;;;;;30.70;7.18;;;435.80;1152.00;;;;;;5031011;28;20076;-75
2022/03/23 10:16:50;;;;;;;;;;;435.90;1152.00;;;;;;5016377;28;20045;-74
2022/03/23 10:19:16;;;;;;;21.95;7.57;;;435.90;1126.40;;;;;;5034861;28;19905;-74
2022/03/23 10:21:42;;;;;;;19.48;7.45;;;436.10;1126.40;;;;;;5017855;28;20033;-74
2022/03/23 10:24:07;;;;;;;14.05;6.28;;;461.10;1126.40;;;;;;5018270;28;20072;-74
2022/03/23 10:26:38;;;;;;;17.67;6.28;;;460.80;1126.40;;;;;;5017917;28;20049;-74
2022/03/23 10:29:10;;;;;;;38.13;7.63;;;461.10;1100.80;;;;;;5018102;28;20056;-75
2022/03/23 10:31:36;;;;;;;25.67;6.40;;;461.20;1100.80;;;;;;5018062;28;20025;-75
2022/03/23 10:34:08;;;;;;;20.25;6.07;;;461.30;1100.80;;;;;;5034471;28;20493;-74
2022/03/23 10:36:51;;;;;;;20.67;8.02;;;461.40;1100.80;;;;;;5034512;28;20029;-74
2022/03/23 10:39:18;;;;;;;24.60;5.07;;;461.70;1075.20;;;;;;5017965;28;20112;-76
2022/03/23 10:41:55;;;;;;;14.48;5.57;;;461.50;1075.20;;;;;;5034711;28;20071;-74
2022/03/23 10:44:20;;;;;;;56.63;7.10;;;486.50;1024.00;;;;;;5034628;28;20176;-74
2022/03/23 10:46:46;;;;;;;16.08;5.07;;;486.60;1049.60;;;;;;5037376;28;20499;-76
2022/03/23 10:49:14;;;;;;;15.18;5.30;;;486.70;1024.00;;;;;;5056325;28;20044;-74
2022/03/23 10:51:42;;;;;;;19.73;6.63;;;486.90;998.40;;;;;;5056279;28;20090;-74
2022/03/23 10:54:18;;;;;;;10.52;4.63;;;487.10;998.40;;;;;;5056351;28;20032;-74
2022/03/23 10:56:44;;;;;;;16.48;5.55;;;487.00;972.80;;;;;;5056086;28;20036;-74
2022/03/23 10:59:16;;;;;;;16.90;5.13;;;487.10;972.80;;;;;;5056340;28;20033;-74
2022/03/23 11:02:06;;;;;;;21.52;5.95;;;512.00;972.80;;;;;;5056162;28;20042;-74
2022/03/23 11:04:56;;;;;;;26.60;9.48;;;512.20;921.60;;;;;;5054700;28;20053;-74
2022/03/23 11:07:27;;;;;;;14.18;4.35;;;512.60;921.60;;;;;;5055737;28;20025;-74
2022/03/23 11:18:32;;;;;;;13.77;5.10;;;537.70;896.00;;;;;;5056182;28;20381;-76
2022/03/23 11:20:58;;;;;;;17.80;7.45;;;537.90;870.40;;;;;;5054729;28;20178;-75
2022/03/23 11:23:25;;;;;;;11.30;4.07;;;537.80;844.80;;;;;;5054192;28;20435;-74
2022/03/23 11:25:53;;;;;;;12.13;6.03;;;537.90;844.80;;;;;;5055268;28;20116;-73
2022/03/23 11:28:19;;;;;;;11.00;4.82;;;538.10;844.80;;;;;;5054711;28;20489;-77
2022/03/23 11:30:46;;;;;;;45.58;5.53;;;538.30;819.20;;;;;;5054259;28;20102;-75
2022/03/23 11:33:15;;;;;;;15.05;4.47;;;538.20;819.20;;;;;;5055537;28;20032;-75
2022/03/23 11:35:47;;;;;;;15.93;4.38;;;538.10;819.20;;;;;;5053653;28;20473;-76
2022/03/23 11:38:13;;;;;;;14.20;4.13;;;538.10;819.20;;;;;;5051272;28;20389;-76
2022/03/23 11:40:44;;;;;;;9.05;4.43;;;512.90;793.60;;;;;;5055019;28;20017;-77
2022/03/23 11:43:11;;;;;;;18.02;4.78;;;537.90;844.80;;;;;;5052399;28;20028;-76
2022/03/23 11:45:39;;;;;;;15.52;4.40;;;538.00;844.80;;;;;;5053715;28;20136;-78
2022/03/23 11:48:20;;;;;;;15.48;5.32;;;538.40;819.20;;;;;;5052772;28;20029;-75
2022/03/23 11:51:05;;;;;;;11.95;4.30;;;538.40;819.20;;;;;;5039035;28;20083;-76
2022/03/23 11:53:43;;;;;;;8.90;3.75;;;538.20;844.80;;;;;;5035169;28;20017;-76
2022/03/23 11:56:10;;;;;;;10.30;3.50;;;537.80;844.80;;;;;;5033733;28;20034;-75
2022/03/23 11:58:38;;;;;;;12.20;3.90;;;537.90;819.20;;;;;;5035010;28;20042;-75
2022/03/23 12:01:11;;;;;;;14.85;4.32;;;538.00;870.40;;;;;;5039047;28;20103;-75
2022/03/23 12:04:18;;;;;;;22.10;4.40;;;538.40;844.80;;;;;;5054527;28;20013;-75
2022/03/23 12:06:44;;;;;;;12.55;4.53;;;538.50;844.80;;;;;;5024148;28;20026;-76
2022/03/23 12:09:49;;;;;;;8.60;3.45;;;563.30;870.40;;;;;;5022183;28;20037;-78
2022/03/23 12:12:38;;;;;;;9.52;4.55;;;538.30;819.20;;;;;;4983078;28;20450;-75
2022/03/23 12:15:24;;;;;;;31.63;4.55;;;538.20;844.80;;;;;;4996015;28;20626;-74
2022/03/23 12:17:56;;;;;;;;;;;538.40;819.20;;;;;;4985257;28;20129;-76
2022/03/23 12:20:37;;;;;;;15.75;4.45;;;563.30;819.20;;;;;;4966020;28;19910;-75
2022/03/23 12:23:14;;;;;;;11.05;5.00;;;538.50;793.60;;;;;;4968673;28;20546;-75
2022/03/23 12:26:21;;;;;;;15.02;5.00;;;563.40;819.20;;;;;;4981438;28;20062;-75
2022/03/23 12:28:57;;;;;;;15.77;7.63;;;563.50;819.20;;;;;;4945794;29;20512;-74
2022/03/23 12:31:38;;;;;;;14.60;6.43;;;563.70;793.60;;;;;;4953899;28;20031;-75
2022/03/23 12:34:18;;;;;;;14.65;3.90;;;563.90;819.20;;;;;;4954249;28;20106;-75
2022/03/23 12:37:01;;;;;;;12.80;5.10;;;564.00;793.60;;;;;;4935824;29;20132;-75
2022/03/23 12:39:33;;;;;;;11.60;4.15;;;564.00;793.60;;;;;;4936310;29;20469;-75
2022/03/23 12:42:19;;;;;;;9.95;4.28;;;563.60;793.60;;;;;;4956833;28;20023;-78
2022/03/23 12:45:05;;;;;;;13.48;4.60;;;563.60;819.20;;;;;;5009873;28;20131;-75
2022/03/23 12:47:33;;;;;;;7.65;3.70;;;563.90;819.20;;;;;;5011492;28;20041;-75
2022/03/23 12:58:36;;;;;;;11.52;3.60;;;563.50;793.60;;;;;;5009880;28;20049;-79